RJNY(METAR)
04/28 17:00
METAR RJNY 280800Z 25019KT 9999 FEW025 19/04 Q1004 RMK 1CU025 A2966
MAX WIND 27KT=
戻る
トップページへ戻る
IMOC Co,.Ltd.